Time;durP1;ratioP1;P1;durP2;ratioP2;P2;SDS_P1;SDS_P2;PMS_P1;PMS_P2;Temp;Humidity;BMP_temperature;BMP_pressure;BME280_temperature;BME280_humidity;BME280_pressure;Samples;Min_cycle;Max_cycle;Signal;HPM_P1;HPM_P2
2022/06/29 00:13:57;;;;;;;8.40;3.72;;;15.00;99.90;;;;;;6279882;22;20018;-93
2022/06/29 00:23:07;;;;;;;11.10;3.67;;;16.10;99.90;;;;;;6292096;22;20344;-92
2022/06/29 00:25:54;;;;;;;10.50;3.40;;;15.00;99.90;;;;;;6252694;22;20016;-92
2022/06/29 00:32:51;;;;;;;10.45;3.60;;;14.90;99.90;;;;;;6281861;22;20023;-92
2022/06/29 00:40:08;;;;;;;10.93;3.67;;;14.90;99.90;;;;;;6250137;22;20027;-91
2022/06/29 00:58:06;;;;;;;8.45;4.05;;;14.50;99.90;;;;;;6247795;23;20042;-90
2022/06/29 01:04:33;;;;;;;9.15;4.00;;;14.80;99.90;;;;;;6247196;23;20019;-90
2022/06/29 01:07:37;;;;;;;9.48;4.07;;;14.40;99.90;;;;;;6246726;23;20348;-90
2022/06/29 01:10:30;;;;;;;9.68;4.00;;;15.10;99.90;;;;;;6248254;23;20070;-90
2022/06/29 01:13:05;;;;;;;9.85;4.10;;;14.60;99.90;;;;;;6250393;23;20024;-91
2022/06/29 01:16:20;;;;;;;8.55;4.30;;;14.60;99.90;;;;;;6248443;23;20100;-90
2022/06/29 01:24:03;;;;;;;9.32;4.30;;;14.60;99.90;;;;;;6273878;22;20027;-91
2022/06/29 01:27:23;;;;;;;10.52;4.28;;;14.50;99.90;;;;;;6274157;22;20026;-91
2022/06/29 01:34:38;;;;;;;8.68;4.20;;;14.60;99.90;;;;;;6277340;22;20019;-91
2022/06/29 01:38:06;;;;;;;10.63;4.50;;;14.30;99.90;;;;;;6278401;22;20007;-89
2022/06/29 01:40:47;;;;;;;9.25;4.47;;;14.30;99.90;;;;;;6257726;22;20258;-90
2022/06/29 01:47:10;;;;;;;8.50;4.40;;;13.90;99.90;;;;;;6200643;22;20011;31
2022/06/29 01:50:39;;;;;;;10.10;4.40;;;14.30;99.90;;;;;;6191071;23;20353;-90
2022/06/29 01:57:53;;;;;;;9.15;4.72;;;14.20;99.90;;;;;;6216374;23;20022;-92
2022/06/29 02:01:00;;;;;;;11.63;5.25;;;14.00;99.90;;;;;;6217106;23;20017;-92
2022/06/29 02:03:32;;;;;;;10.93;5.10;;;14.10;99.90;;;;;;6188647;23;20449;-90
2022/06/29 02:06:13;;;;;;;9.93;4.68;;;15.10;99.90;;;;;;6188774;23;20013;-92
2022/06/29 02:09:06;;;;;;;10.60;4.97;;;14.80;99.90;;;;;;6189213;23;20032;-91
2022/06/29 02:11:53;;;;;;;8.88;4.60;;;14.00;99.90;;;;;;6260463;22;20387;-92
2022/06/29 02:15:20;;;;;;;9.95;4.95;;;14.00;99.90;;;;;;6186654;23;20028;-91
2022/06/29 02:17:50;;;;;;;9.52;4.63;;;13.90;99.90;;;;;;6134978;23;20320;-91
2022/06/29 02:20:27;;;;;;;9.63;5.07;;;13.90;99.90;;;;;;6204931;22;20541;-92
2022/06/29 02:23:52;;;;;;;9.55;5.15;;;13.80;99.90;;;;;;6250387;22;20039;-92
2022/06/29 02:26:50;;;;;;;;;;;13.90;99.90;;;;;;6277106;22;20315;-92
2022/06/29 02:30:17;;;;;;;8.65;4.80;;;13.60;99.90;;;;;;6276916;22;19950;-92
2022/06/29 02:37:46;;;;;;;9.65;4.72;;;13.70;99.90;;;;;;6250265;22;20497;-92
2022/06/29 02:40:12;;;;;;;9.65;5.20;;;13.60;99.90;;;;;;6276634;22;20083;-92
2022/06/29 02:42:47;;;;;;;11.25;5.25;;;14.30;99.90;;;;;;6277864;22;20058;-92
2022/06/29 02:45:19;;;;;;;9.85;4.68;;;14.40;99.90;;;;;;6249539;22;20090;-92
2022/06/29 02:55:31;;;;;;;9.57;4.97;;;13.50;99.90;;;;;;6254344;23;20068;-92
2022/06/29 02:58:01;;;;;;;10.50;5.50;;;13.30;99.90;;;;;;6240193;23;20073;-92
2022/06/29 03:00:42;;;;;;;10.43;5.50;;;14.00;99.90;;;;;;6226070;23;20035;-92
2022/06/29 03:03:55;;;;;;;11.00;5.20;;;14.70;99.90;;;;;;6223565;23;20016;-91
2022/06/29 03:10:39;;;;;;;10.27;5.65;;;13.40;99.90;;;;;;6062527;23;20084;-92
2022/06/29 03:17:25;;;;;;;10.13;5.78;;;13.70;99.90;;;;;;6124512;23;20521;-92
2022/06/29 03:29:16;;;;;;;11.55;6.43;;;13.40;99.90;;;;;;6247272;22;20016;-91
2022/06/29 03:39:16;;;;;;;10.73;5.88;;;13.40;99.90;;;;;;6246355;23;20020;-92
2022/06/29 03:42:26;;;;;;;10.38;5.63;;;13.20;99.90;;;;;;6217143;23;20020;-91
2022/06/29 03:52:37;;;;;;;13.57;6.90;;;13.50;99.90;;;;;;6250443;23;20123;-90
2022/06/29 03:58:11;;;;;;;10.75;6.25;;;13.70;99.90;;;;;;6244680;22;20031;-92
2022/06/29 04:01:47;;;;;;;13.15;6.55;;;13.60;99.90;;;;;;6245295;23;20476;-93
2022/06/29 04:19:33;;;;;;;12.70;7.00;;;13.60;99.90;;;;;;6214060;23;20035;-91
2022/06/29 04:22:54;;;;;;;11.55;6.70;;;15.10;99.90;;;;;;6215766;23;20318;-92
2022/06/29 04:25:51;;;;;;;11.02;6.72;;;13.60;99.90;;;;;;6187914;23;20517;-92
2022/06/29 04:28:17;;;;;;;11.13;6.95;;;13.80;99.90;;;;;;6188268;23;20055;-91
2022/06/29 04:30:43;;;;;;;10.38;6.70;;;14.40;99.90;;;;;;6214611;23;20016;-92
2022/06/29 04:33:25;;;;;;;12.88;6.70;;;15.10;99.90;;;;;;6191568;23;20020;-92
2022/06/29 04:36:47;;;;;;;11.70;6.85;;;13.90;99.90;;;;;;6198835;23;20027;-92
2022/06/29 04:43:11;;;;;;;13.52;6.72;;;13.90;99.90;;;;;;6220230;23;20015;-92
2022/06/29 05:21:38;;;;;;;11.77;6.80;;;14.30;99.90;;;;;;6306819;22;20094;-91
2022/06/29 05:28:34;;;;;;;14.10;7.30;;;14.90;99.90;;;;;;6274506;22;20088;-91
2022/06/29 05:31:23;;;;;;;11.73;7.10;;;15.70;99.90;;;;;;6308463;22;20465;-90
2022/06/29 05:40:55;;;;;;;10.82;7.45;;;15.40;99.90;;;;;;6297583;22;20343;-91
2022/06/29 05:44:14;;;;;;;11.65;7.38;;;16.10;99.90;;;;;;6308831;22;20019;-92
2022/06/29 05:54:01;;;;;;;11.52;7.05;;;15.90;99.90;;;;;;6155650;23;20135;-92
2022/06/29 05:57:03;;;;;;;10.18;6.80;;;16.10;99.90;;;;;;6152722;23;20053;-92
2022/06/29 06:07:29;;;;;;;10.07;6.20;;;16.40;99.90;;;;;;6107726;23;20384;-91
2022/06/29 06:11:08;;;;;;;11.13;6.05;;;16.40;99.90;;;;;;6202334;23;20049;-96
2022/06/29 06:14:44;;;;;;;10.73;6.10;;;16.70;99.90;;;;;;6232418;23;20024;-96
2022/06/29 06:26:24;;;;;;;11.20;5.65;;;17.20;99.90;;;;;;6182738;23;20006;-95
2022/06/29 07:39:34;;;;;;;;;;;;;;;;;;;;;
2022/06/29 07:47:29;;;;;;;8.55;2.70;;;22.40;99.90;;;;;;6154421;23;20541;-96
2022/06/29 07:58:37;;;;;;;;;;;;;;;;;;;;;
2022/06/29 08:04:20;;;;;;;6.60;2.60;;;23.50;99.90;;;;;;6275426;22;20027;-94
2022/06/29 08:07:01;;;;;;;6.90;2.38;;;23.80;99.90;;;;;;6252353;22;20343;-94
2022/06/29 09:49:40;;;;;;;7.95;3.45;;;26.60;99.60;;;;;;6124468;23;20102;-92
2022/06/29 10:03:54;;;;;;;8.38;3.13;;;26.10;99.90;;;;;;6277055;22;20016;-89
2022/06/29 10:14:46;;;;;;;8.10;3.33;;;25.80;99.90;;;;;;6215198;23;20016;-87
2022/06/29 10:25:52;;;;;;;8.38;3.13;;;27.00;99.90;;;;;;6214631;23;20128;-88
2022/06/29 10:51:32;;;;;;;8.63;3.50;;;28.10;95.90;;;;;;6218135;22;20012;-89
2022/06/29 10:58:35;;;;;;;7.22;3.33;;;27.80;95.10;;;;;;6245008;23;20011;-88
2022/06/29 11:31:09;;;;;;;7.80;3.70;;;26.50;97.40;;;;;;6244505;23;20439;-88
2022/06/29 11:34:05;;;;;;;9.60;4.00;;;26.50;96.80;;;;;;6243877;23;20050;-90
2022/06/29 11:37:26;;;;;;;8.45;3.67;;;26.80;95.90;;;;;;6218414;23;20024;-91
2022/06/29 11:44:32;;;;;;;7.95;3.53;;;27.80;96.80;;;;;;6244225;23;20039;-90
2022/06/29 11:46:58;;;;;;;8.02;3.85;;;28.20;96.00;;;;;;6143340;23;20020;-91
2022/06/29 11:53:44;;;;;;;9.32;4.00;;;27.70;95.60;;;;;;6247192;23;20058;-91
2022/06/29 11:57:10;;;;;;;;;;;;;;;;;;;;;
2022/06/29 12:03:15;;;;;;;10.65;4.10;;;27.10;96.30;;;;;;6275364;22;20055;-87
2022/06/29 12:06:29;;;;;;;9.52;3.88;;;27.10;96.00;;;;;;6249738;22;20022;-86
2022/06/29 12:09:13;;;;;;;9.40;4.00;;;27.10;96.30;;;;;;6098622;23;20145;-86
2022/06/29 12:11:58;;;;;;;8.50;3.80;;;26.90;96.50;;;;;;6249996;22;20019;-88
2022/06/29 12:18:23;;;;;;;8.53;4.20;;;26.70;96.80;;;;;;6276245;22;20016;-88
2022/06/29 12:28:29;;;;;;;8.60;4.18;;;26.90;96.20;;;;;;6123068;23;20065;-88
2022/06/29 12:31:10;;;;;;;10.13;4.10;;;27.20;96.40;;;;;;6123336;23;20785;-87
2022/06/29 13:08:42;;;;;;;9.13;3.88;;;28.80;94.20;;;;;;6152678;23;20481;-87
2022/06/29 13:13:52;;;;;;;10.15;4.53;;;28.20;95.30;;;;;;6274063;22;20020;-88
2022/06/29 13:17:18;;;;;;;9.32;4.30;;;28.40;95.80;;;;;;6276981;22;20016;-87
2022/06/29 13:24:12;;;;;;;9.00;4.30;;;29.20;94.20;;;;;;6274043;22;20392;-84
2022/06/29 13:27:56;;;;;;;8.70;4.22;;;29.10;93.70;;;;;;6191510;23;20345;-87
2022/06/29 13:35:16;;;;;;;11.23;4.70;;;28.90;94.20;;;;;;6187158;23;20099;-85
2022/06/29 13:38:38;;;;;;;10.15;4.60;;;28.70;93.10;;;;;;6191163;23;20023;-86
2022/06/29 13:41:09;;;;;;;8.52;4.45;;;28.50;94.10;;;;;;6214884;23;20023;-86
2022/06/29 13:43:50;;;;;;;8.52;4.13;;;28.20;94.90;;;;;;6201005;23;20039;-86
2022/06/29 13:46:30;;;;;;;9.20;4.80;;;28.10;94.60;;;;;;6207101;23;20016;-87
2022/06/29 13:56:39;;;;;;;9.38;4.40;;;28.00;95.90;;;;;;6214750;23;20066;-86
2022/06/29 13:59:30;;;;;;;10.18;4.72;;;28.90;95.60;;;;;;6213339;23;20445;-84
2022/06/29 14:02:23;;;;;;;10.07;4.57;;;29.30;94.50;;;;;;6186929;23;20042;-85
2022/06/29 14:05:10;;;;;;;8.95;4.68;;;29.60;94.80;;;;;;6187033;23;20056;-86
2022/06/29 14:07:45;;;;;;;8.48;4.88;;;29.70;93.50;;;;;;6186809;23;20074;-85
2022/06/29 14:10:26;;;;;;;9.73;4.55;;;29.70;93.50;;;;;;6214657;23;20016;-85
2022/06/29 14:13:10;;;;;;;10.20;4.80;;;29.60;93.30;;;;;;6187336;23;20441;-86
2022/06/29 14:15:36;;;;;;;8.75;4.80;;;29.40;93.90;;;;;;6213721;23;20021;-86
2022/06/29 14:18:13;;;;;;;13.40;5.18;;;29.30;94.40;;;;;;6187559;23;20055;-86
2022/06/29 14:20:52;;;;;;;10.43;4.65;;;29.20;92.90;;;;;;6187911;23;20051;-86
2022/06/29 14:23:30;;;;;;;9.88;4.75;;;29.30;94.10;;;;;;6187577;23;20055;-86
2022/06/29 14:26:14;;;;;;;9.77;5.07;;;29.30;94.50;;;;;;6187672;23;20070;-86
2022/06/29 14:28:55;;;;;;;10.05;4.97;;;29.20;94.30;;;;;;6213740;23;20088;-85
2022/06/29 14:31:37;;;;;;;9.02;4.85;;;29.30;94.00;;;;;;6188054;23;20025;-85
2022/06/29 14:34:03;;;;;;;9.57;4.70;;;29.20;94.10;;;;;;6178507;23;20020;-86
2022/06/29 14:36:44;;;;;;;10.07;5.10;;;28.90;94.20;;;;;;6187112;23;20021;-87
2022/06/29 14:39:21;;;;;;;9.85;4.72;;;28.80;93.50;;;;;;6189104;23;20017;-87
2022/06/29 14:41:58;;;;;;;10.00;4.65;;;28.80;94.70;;;;;;6188155;23;20023;-86
2022/06/29 14:44:23;;;;;;;8.95;4.88;;;28.70;94.20;;;;;;6188347;23;20013;-86
2022/06/29 14:47:04;;;;;;;8.52;4.45;;;28.70;94.30;;;;;;6214323;23;20388;-86
2022/06/29 14:49:39;;;;;;;9.25;4.18;;;28.90;94.30;;;;;;6187217;23;20013;-86
2022/06/29 14:52:05;;;;;;;8.63;4.53;;;28.90;94.70;;;;;;6214435;23;20012;-86
2022/06/29 14:54:47;;;;;;;9.35;4.90;;;28.90;95.10;;;;;;6188280;23;20017;-86
2022/06/29 14:57:25;;;;;;;9.60;4.70;;;28.90;94.80;;;;;;6186749;23;20019;-86
2022/06/29 14:59:51;;;;;;;10.95;4.57;;;28.90;94.70;;;;;;6212529;23;20457;-86
2022/06/29 15:02:26;;;;;;;9.32;4.90;;;28.90;95.00;;;;;;6214396;23;20019;-87
2022/06/29 15:05:04;;;;;;;9.18;4.75;;;29.00;94.10;;;;;;6213286;23;20024;-87
2022/06/29 15:07:32;;;;;;;9.05;4.75;;;29.20;95.10;;;;;;6213423;23;20469;-87
2022/06/29 15:10:03;;;;;;;8.75;4.70;;;29.10;94.90;;;;;;6186582;23;20016;-87
2022/06/29 15:13:09;;;;;;;9.20;4.70;;;29.20;94.70;;;;;;6181276;23;20021;-89
2022/06/29 15:23:36;;;;;;;8.75;4.80;;;29.00;94.30;;;;;;6097422;23;20022;-88
2022/06/29 15:30:02;;;;;;;11.02;4.90;;;29.30;94.50;;;;;;6093220;23;20065;-90
2022/06/29 15:32:31;;;;;;;9.35;4.60;;;29.20;93.70;;;;;;6092470;23;20093;-89
2022/06/29 15:44:25;;;;;;;;;;;29.10;93.50;;;;;;6233300;23;20022;-91
2022/06/29 15:47:47;;;;;;;8.82;4.63;;;29.10;93.30;;;;;;6214873;23;19985;-88
2022/06/29 15:51:08;;;;;;;9.80;4.07;;;29.30;93.20;;;;;;6213320;23;20095;-87
2022/06/29 15:57:28;;;;;;;7.38;3.78;;;29.50;92.10;;;;;;6214545;23;20071;-87
2022/06/29 16:04:05;;;;;;;9.75;4.10;;;29.60;90.90;;;;;;6215405;23;20020;-89
2022/06/29 16:06:31;;;;;;;8.85;4.00;;;29.90;91.90;;;;;;6212224;23;20020;-88
2022/06/29 16:09:05;;;;;;;8.57;3.90;;;30.20;91.40;;;;;;6208572;23;20047;-87
2022/06/29 16:14:41;;;;;;;8.52;3.85;;;30.50;90.20;;;;;;6211610;23;20016;-87
2022/06/29 16:17:08;;;;;;;7.97;3.60;;;30.60;90.30;;;;;;6214505;23;20020;-88
2022/06/29 16:19:49;;;;;;;7.72;3.70;;;30.60;89.90;;;;;;6213145;23;20178;-87
2022/06/29 16:22:19;;;;;;;9.13;3.95;;;30.40;88.40;;;;;;6213955;23;20024;-87
2022/06/29 16:25:01;;;;;;;8.25;3.67;;;30.10;90.00;;;;;;6214162;23;20009;-87
2022/06/29 16:27:57;;;;;;;7.88;3.50;;;29.70;89.60;;;;;;6212368;23;20017;-87
2022/06/29 16:30:29;;;;;;;9.80;3.97;;;29.40;90.30;;;;;;6213691;23;20022;-87
2022/06/29 16:32:57;;;;;;;8.88;3.83;;;29.30;90.80;;;;;;6214564;23;20005;-87
2022/06/29 16:35:23;;;;;;;8.00;4.13;;;29.00;90.50;;;;;;6213985;23;20020;-87
2022/06/29 16:38:03;;;;;;;9.18;4.03;;;28.90;90.70;;;;;;6161812;23;20013;-87
2022/06/29 16:40:29;;;;;;;8.98;4.18;;;28.80;90.90;;;;;;6220432;23;20518;-87
2022/06/29 16:42:55;;;;;;;9.07;4.07;;;28.80;90.80;;;;;;6218752;23;20091;-87
2022/06/29 16:45:20;;;;;;;8.68;3.92;;;28.90;91.50;;;;;;6247358;23;20095;-87
2022/06/29 16:47:46;;;;;;;7.90;4.00;;;29.00;91.60;;;;;;6258911;23;20071;-87
2022/06/29 16:50:14;;;;;;;8.70;3.80;;;28.90;91.40;;;;;;6259643;23;20027;-87
2022/06/29 16:52:40;;;;;;;8.93;3.80;;;28.60;91.30;;;;;;6218879;23;20020;-88
2022/06/29 16:55:06;;;;;;;8.85;3.70;;;28.60;91.30;;;;;;6246096;23;20016;-87
2022/06/29 16:57:32;;;;;;;8.68;3.70;;;28.60;91.80;;;;;;6217537;23;20091;-87
2022/06/29 16:59:57;;;;;;;8.50;3.72;;;28.50;91.90;;;;;;6245613;23;20023;-87
2022/06/29 17:02:23;;;;;;;8.23;3.35;;;28.40;91.90;;;;;;6219533;23;20625;-86
2022/06/29 17:04:52;;;;;;;8.95;3.88;;;28.30;91.80;;;;;;6245152;23;20020;-87
2022/06/29 17:07:35;;;;;;;6.80;3.38;;;28.10;91.90;;;;;;6208171;22;20095;-86
2022/06/29 17:11:02;;;;;;;8.35;3.53;;;28.00;91.90;;;;;;6037748;23;20057;-87
2022/06/29 17:13:27;;;;;;;8.07;3.95;;;27.80;92.40;;;;;;6163449;23;20030;-87
2022/06/29 17:16:11;;;;;;;8.38;3.67;;;27.60;92.60;;;;;;6163727;23;20392;-87
2022/06/29 17:18:37;;;;;;;9.07;3.67;;;27.50;92.70;;;;;;6163328;23;20023;-87
2022/06/29 17:21:03;;;;;;;9.05;3.67;;;27.30;92.50;;;;;;6063491;23;20057;-87
2022/06/29 17:23:29;;;;;;;9.95;3.78;;;27.30;92.50;;;;;;6066309;23;20058;-87
2022/06/29 17:25:54;;;;;;;9.60;3.70;;;27.30;92.70;;;;;;6162387;23;20023;-87
2022/06/29 17:28:20;;;;;;;8.15;3.83;;;27.40;92.80;;;;;;6064376;23;20068;-87
2022/06/29 17:31:01;;;;;;;8.43;3.55;;;27.40;92.90;;;;;;6068443;22;20383;-85
2022/06/29 17:33:57;;;;;;;9.02;3.80;;;27.30;93.10;;;;;;6094818;23;20018;-86
2022/06/29 17:36:23;;;;;;;7.47;3.67;;;27.20;93.40;;;;;;6092274;23;20018;-87
2022/06/29 17:39:07;;;;;;;7.97;3.67;;;27.00;93.40;;;;;;6193347;23;20402;-90
2022/06/29 17:41:54;;;;;;;9.23;3.90;;;26.80;93.50;;;;;;6092819;23;20098;-89
2022/06/29 17:44:29;;;;;;;7.75;3.60;;;26.70;93.70;;;;;;6192027;22;20018;-88
2022/06/29 17:46:55;;;;;;;8.25;3.70;;;26.50;94.00;;;;;;6191446;23;20033;-87
2022/06/29 17:52:49;;;;;;;8.88;4.40;;;26.60;94.70;;;;;;6255275;22;20464;-87
2022/06/29 17:55:27;;;;;;;8.20;4.00;;;26.50;95.10;;;;;;6275882;22;20019;-88
2022/06/29 17:58:11;;;;;;;7.93;3.88;;;26.50;95.40;;;;;;6274930;22;20030;-87
2022/06/29 18:00:43;;;;;;;7.38;3.78;;;26.40;95.50;;;;;;6247045;22;20023;-87
2022/06/29 18:03:09;;;;;;;9.02;4.05;;;26.40;95.60;;;;;;6268898;22;20035;-87
2022/06/29 18:09:43;;;;;;;9.00;4.40;;;26.30;95.50;;;;;;6276126;22;20069;-90
2022/06/29 18:12:29;;;;;;;10.63;4.65;;;26.30;95.90;;;;;;6275221;22;20011;-89
2022/06/29 18:15:10;;;;;;;10.38;4.82;;;26.00;96.10;;;;;;6247188;22;20020;-90
2022/06/29 18:17:51;;;;;;;13.38;5.10;;;25.90;96.60;;;;;;6197014;22;20453;-90
2022/06/29 18:20:58;;;;;;;9.48;4.80;;;25.80;97.20;;;;;;6274038;22;20015;-89
2022/06/29 18:23:30;;;;;;;9.40;4.93;;;25.70;97.20;;;;;;6275852;22;20069;-89
2022/06/29 18:26:30;;;;;;;10.07;5.20;;;25.70;97.60;;;;;;6230598;22;20088;-89
2022/06/29 18:29:23;;;;;;;11.93;5.30;;;25.70;98.10;;;;;;6234851;22;20089;-89
2022/06/29 18:31:58;;;;;;;9.55;5.65;;;25.60;98.20;;;;;;6247527;22;20094;-88
2022/06/29 18:34:36;;;;;;;9.30;5.30;;;25.50;98.60;;;;;;6274531;22;20066;-89
2022/06/29 18:41:02;;;;;;;9.85;6.00;;;25.30;99.00;;;;;;6272645;22;20031;-88
2022/06/29 18:48:16;;;;;;;10.27;6.07;;;25.10;99.70;;;;;;6277692;22;20451;-87
2022/06/29 18:51:00;;;;;;;10.68;5.90;;;25.40;99.90;;;;;;6291883;22;20054;-88
2022/06/29 18:56:37;;;;;;;9.80;5.88;;;25.40;99.90;;;;;;6271077;22;20027;-88
2022/06/29 19:00:06;;;;;;;11.57;5.95;;;25.30;99.90;;;;;;6153955;23;20025;-90
2022/06/29 19:03:32;;;;;;;10.68;5.72;;;25.20;99.90;;;;;;6129537;23;20839;-88
2022/06/29 19:06:18;;;;;;;9.75;5.57;;;25.10;99.90;;;;;;6110952;23;20040;-88
2022/06/29 19:14:30;;;;;;;9.27;5.43;;;24.90;99.90;;;;;;6223825;23;20027;-89
2022/06/29 19:17:28;;;;;;;10.25;5.43;;;24.90;99.90;;;;;;6247106;22;20020;-88
2022/06/29 19:31:30;;;;;;;11.67;6.10;;;24.40;99.90;;;;;;6245295;22;20531;-89
2022/06/29 19:34:00;;;;;;;12.32;5.22;;;24.40;99.90;;;;;;6275527;22;20234;-89
2022/06/29 19:36:32;;;;;;;10.23;5.03;;;24.40;99.90;;;;;;6275232;22;20084;-89
2022/06/29 19:42:22;;;;;;;11.30;5.55;;;24.30;99.90;;;;;;6274413;22;20027;-89
2022/06/29 19:48:50;;;;;;;10.55;5.70;;;24.20;99.90;;;;;;6245796;22;20024;-89
2022/06/29 19:51:21;;;;;;;10.32;5.80;;;24.10;99.90;;;;;;6284058;22;20100;-89
2022/06/29 19:54:02;;;;;;;9.82;5.50;;;24.00;99.90;;;;;;6249340;22;20012;-90
2022/06/29 19:57:03;;;;;;;11.13;5.57;;;24.00;99.90;;;;;;6249200;22;20012;-96
2022/06/29 20:00:23;;;;;;;10.70;5.45;;;23.90;99.90;;;;;;6173199;22;20030;-91
2022/06/29 20:05:15;;;;;;;11.20;5.53;;;23.80;99.90;;;;;;6270574;22;20023;-89
2022/06/29 20:07:56;;;;;;;11.27;5.68;;;23.80;99.90;;;;;;6247803;22;20018;-90
2022/06/29 20:14:01;;;;;;;10.27;5.68;;;23.70;99.90;;;;;;6247724;22;20027;-90
2022/06/29 20:17:48;;;;;;;10.55;6.15;;;23.60;99.90;;;;;;6125832;23;20464;-89
2022/06/29 20:20:35;;;;;;;11.02;5.93;;;23.40;99.90;;;;;;6101373;23;20398;-89
2022/06/29 20:23:06;;;;;;;10.85;6.00;;;23.50;99.90;;;;;;6100137;23;20022;-90
2022/06/29 20:25:40;;;;;;;10.05;5.97;;;23.50;99.90;;;;;;6102892;23;20018;-90
2022/06/29 20:28:14;;;;;;;11.23;6.25;;;23.40;99.90;;;;;;6163492;23;20047;-91
2022/06/29 20:30:43;;;;;;;11.00;6.32;;;23.40;99.90;;;;;;6260589;23;20464;-93
2022/06/29 20:33:15;;;;;;;11.13;6.38;;;23.40;99.90;;;;;;6254777;23;20020;-93
2022/06/29 20:36:03;;;;;;;10.93;6.85;;;23.30;99.90;;;;;;6226479;23;20020;-95
2022/06/29 20:38:31;;;;;;;11.80;6.82;;;23.20;99.90;;;;;;6260537;23;20013;-95
2022/06/29 20:41:16;;;;;;;10.95;6.90;;;23.10;99.90;;;;;;6259828;23;20907;-95
2022/06/29 20:47:38;;;;;;;12.43;7.20;;;22.80;99.90;;;;;;6252153;23;20065;-93
2022/06/29 20:53:35;;;;;;;10.68;6.88;;;22.80;99.90;;;;;;6255801;23;20023;-92
2022/06/29 20:56:40;;;;;;;11.32;7.22;;;22.80;99.90;;;;;;6161060;23;20032;-93
2022/06/29 21:31:13;;;;;;;12.73;7.57;;;21.70;99.90;;;;;;6021686;22;20401;-86
2022/06/29 21:33:48;;;;;;;11.68;7.85;;;21.70;99.90;;;;;;6221639;23;20023;-84
2022/06/29 21:36:25;;;;;;;10.65;7.30;;;21.70;99.90;;;;;;6192261;23;20061;-88
2022/06/29 21:39:00;;;;;;;12.63;8.02;;;21.60;99.90;;;;;;6196388;23;20019;-86
2022/06/29 21:41:26;;;;;;;13.23;8.02;;;21.60;99.90;;;;;;6199735;23;20019;-86
2022/06/29 21:43:51;;;;;;;12.27;7.93;;;21.60;99.90;;;;;;6198421;23;20049;-86
2022/06/29 21:46:17;;;;;;;12.60;8.30;;;21.50;99.90;;;;;;6202227;23;20029;-86
2022/06/29 21:51:31;;;;;;;12.27;7.50;;;21.40;99.90;;;;;;6097486;23;20022;-86
2022/06/29 21:53:57;;;;;;;12.27;7.57;;;21.30;99.90;;;;;;6097794;23;20015;-86
2022/06/29 21:56:23;;;;;;;12.05;7.40;;;21.40;99.90;;;;;;6101511;23;20080;-86
2022/06/29 21:58:48;;;;;;;11.27;7.47;;;21.20;99.90;;;;;;6101768;23;20339;-86
2022/06/29 22:01:14;;;;;;;11.38;7.32;;;21.20;99.90;;;;;;6098145;23;20015;-86
2022/06/29 22:03:40;;;;;;;12.15;7.05;;;21.30;99.90;;;;;;6196952;23;20076;-86
2022/06/29 22:06:06;;;;;;;10.95;6.68;;;21.20;99.90;;;;;;6095582;23;20018;-86
2022/06/29 22:08:33;;;;;;;11.13;6.50;;;21.20;99.90;;;;;;6094385;23;20093;-86
2022/06/29 22:11:00;;;;;;;12.18;6.32;;;21.00;99.90;;;;;;6094423;23;20014;-86
2022/06/29 22:13:26;;;;;;;11.27;6.15;;;21.00;99.90;;;;;;6194935;23;20381;-86
2022/06/29 22:15:52;;;;;;;10.20;5.85;;;21.00;99.90;;;;;;6094239;23;20104;-86
2022/06/29 22:18:17;;;;;;;10.18;5.82;;;20.90;99.90;;;;;;6194772;23;20439;-86
2022/06/29 22:20:45;;;;;;;10.07;5.53;;;20.90;99.90;;;;;;6194502;23;20030;-85
2022/06/29 22:23:11;;;;;;;9.45;5.80;;;20.80;99.90;;;;;;6093587;23;20750;-86
2022/06/29 22:25:37;;;;;;;9.57;5.65;;;20.80;99.90;;;;;;6194163;23;20018;-86
2022/06/29 22:28:04;;;;;;;11.52;5.50;;;20.70;99.90;;;;;;6092364;23;20022;-86
2022/06/29 22:30:29;;;;;;;9.52;5.05;;;20.70;99.90;;;;;;6193588;23;20023;-86
2022/06/29 22:32:55;;;;;;;9.88;5.15;;;20.60;99.90;;;;;;6223684;23;20020;-86
2022/06/29 22:35:20;;;;;;;9.95;5.35;;;20.70;99.90;;;;;;6221056;23;20031;-87
2022/06/29 22:37:46;;;;;;;8.95;5.38;;;21.00;99.90;;;;;;6246860;23;20016;-86
2022/06/29 22:40:11;;;;;;;10.05;5.20;;;20.50;99.90;;;;;;6252298;23;20016;-87
2022/06/29 22:42:38;;;;;;;9.07;5.05;;;20.40;99.90;;;;;;6219766;23;20016;-86
2022/06/29 22:45:04;;;;;;;9.27;5.10;;;20.30;99.90;;;;;;6218928;23;20016;-87
2022/06/29 22:47:29;;;;;;;10.00;4.70;;;20.40;99.90;;;;;;6245216;23;20316;-87
2022/06/29 22:49:55;;;;;;;9.07;4.68;;;20.40;99.90;;;;;;6219180;23;20027;-86
2022/06/29 22:52:20;;;;;;;10.50;4.57;;;20.20;99.90;;;;;;6235068;23;20000;-86
2022/06/29 22:54:46;;;;;;;8.88;4.88;;;20.30;99.90;;;;;;6236954;23;20020;-86
2022/06/29 22:57:11;;;;;;;9.88;4.50;;;20.20;99.90;;;;;;6219299;23;20087;-86
2022/06/29 22:59:37;;;;;;;9.90;4.75;;;20.30;99.90;;;;;;6219148;23;20094;-86
2022/06/29 23:02:03;;;;;;;10.43;4.53;;;20.40;99.90;;;;;;6217757;23;20341;-86
2022/06/29 23:04:28;;;;;;;10.50;4.97;;;20.10;99.90;;;;;;6218735;23;20027;-86
2022/06/29 23:06:54;;;;;;;9.27;4.60;;;20.10;99.90;;;;;;6245615;23;20020;-86
2022/06/29 23:09:20;;;;;;;9.95;4.80;;;20.10;99.90;;;;;;6218146;23;20094;-86
2022/06/29 23:15:01;;;;;;;8.90;4.50;;;20.00;99.90;;;;;;6249490;22;20087;-86
2022/06/29 23:17:32;;;;;;;9.38;4.80;;;21.00;99.90;;;;;;6241172;22;20071;-86
2022/06/29 23:20:07;;;;;;;8.80;4.30;;;20.70;99.90;;;;;;6246922;22;20070;-86
2022/06/29 23:22:44;;;;;;;9.75;4.45;;;20.20;99.90;;;;;;6245998;22;20058;-87
2022/06/29 23:25:19;;;;;;;10.40;4.53;;;20.20;99.90;;;;;;6275786;22;20008;-86
2022/06/29 23:28:00;;;;;;;9.90;4.43;;;20.20;99.90;;;;;;6276762;22;20102;-87
2022/06/29 23:30:34;;;;;;;10.18;4.95;;;20.10;99.90;;;;;;6249203;22;20015;-86
2022/06/29 23:33:06;;;;;;;10.52;4.50;;;20.20;99.90;;;;;;6248738;22;20032;-87
2022/06/29 23:35:41;;;;;;;8.50;4.30;;;20.10;99.90;;;;;;6276506;22;20016;-86
2022/06/29 23:38:19;;;;;;;10.38;4.57;;;20.40;99.90;;;;;;6248546;22;20344;-86
2022/06/29 23:41:03;;;;;;;9.93;4.40;;;20.10;99.90;;;;;;6279275;22;20016;-87
2022/06/29 23:43:38;;;;;;;8.68;4.22;;;20.50;99.90;;;;;;6252784;22;20016;-86
2022/06/29 23:46:04;;;;;;;7.93;4.00;;;20.00;99.90;;;;;;6251903;22;20018;-86
2022/06/29 23:48:30;;;;;;;9.68;4.20;;;20.40;99.90;;;;;;6252718;22;20103;-86
2022/06/29 23:50:58;;;;;;;12.45;4.35;;;19.90;99.90;;;;;;6251109;22;20371;-86
2022/06/29 23:53:24;;;;;;;9.95;4.32;;;19.80;99.90;;;;;;6251858;22;20016;-87
2022/06/29 23:55:50;;;;;;;8.75;4.30;;;19.80;99.90;;;;;;6278618;22;20038;-87
2022/06/29 23:58:17;;;;;;;9.15;4.65;;;19.70;99.90;;;;;;6277659;22;20452;-87
